Time;durP1;ratioP1;P1;durP2;ratioP2;P2;SDS_P1;SDS_P2;PMS_P1;PMS_P2;Temp;Humidity;BMP_temperature;BMP_pressure;BME280_temperature;BME280_humidity;BME280_pressure;Samples;Min_cycle;Max_cycle;Signal;HPM_P1;HPM_P2
2022/01/03 00:01:16;;;;;;;9.65;5.10;;;1.20;99.90;;;;;;5033928;28;20386;-70
2022/01/03 00:03:42;;;;;;;9.77;5.40;;;1.20;99.90;;;;;;5033743;28;20052;-70
2022/01/03 00:06:08;;;;;;;10.93;5.03;;;1.20;99.90;;;;;;5034106;28;20450;-70
2022/01/03 00:08:33;;;;;;;7.70;4.20;;;1.20;99.90;;;;;;5033832;28;20428;-70
2022/01/03 00:11:00;;;;;;;8.43;4.63;;;1.20;99.90;;;;;;5033743;28;20045;-70
2022/01/03 00:13:26;;;;;;;6.43;3.67;;;1.20;99.90;;;;;;5034076;28;20060;-70
2022/01/03 00:15:52;;;;;;;9.85;4.15;;;1.20;99.90;;;;;;5033637;28;20037;-70
2022/01/03 00:18:19;;;;;;;6.75;3.70;;;1.20;99.90;;;;;;5033665;28;20045;-70
2022/01/03 00:20:55;;;;;;;8.10;3.63;;;1.20;99.90;;;;;;5033427;28;20505;-70
2022/01/03 00:23:27;;;;;;;7.53;3.90;;;1.10;99.90;;;;;;5034000;28;20030;-70
2022/01/03 00:26:02;;;;;;;8.23;4.72;;;1.20;99.90;;;;;;5033848;28;20025;-70
2022/01/03 00:28:35;;;;;;;8.77;4.65;;;1.10;99.90;;;;;;5033844;28;20108;-70
2022/01/03 00:31:02;;;;;;;8.77;4.57;;;1.10;99.90;;;;;;5033780;28;20028;-70
2022/01/03 00:33:28;;;;;;;9.05;4.75;;;1.10;99.90;;;;;;5033802;28;20101;-69
2022/01/03 00:35:59;;;;;;;9.15;4.93;;;1.00;99.90;;;;;;5033389;28;20450;-69
2022/01/03 00:38:26;;;;;;;8.90;5.00;;;1.00;99.90;;;;;;5033884;28;20092;-69
2022/01/03 00:40:52;;;;;;;8.63;5.43;;;1.00;99.90;;;;;;5033540;28;20032;-70
2022/01/03 00:43:18;;;;;;;9.45;4.95;;;1.10;99.90;;;;;;5033692;28;20025;-70
2022/01/03 00:45:44;;;;;;;9.88;5.05;;;1.00;99.90;;;;;;5033594;28;20105;-70
2022/01/03 00:48:11;;;;;;;8.80;5.00;;;1.00;99.90;;;;;;5033781;28;20032;-70
2022/01/03 00:50:37;;;;;;;9.32;4.97;;;1.00;99.90;;;;;;5033031;28;20065;-70
2022/01/03 00:53:03;;;;;;;7.40;4.43;;;1.00;99.90;;;;;;5033379;28;20026;-70
2022/01/03 00:55:29;;;;;;;7.53;4.50;;;1.00;99.90;;;;;;5033557;28;20037;-70
2022/01/03 00:58:09;;;;;;;9.48;4.40;;;1.00;99.90;;;;;;5033237;28;20032;-70
2022/01/03 01:00:40;;;;;;;7.97;4.07;;;1.00;99.90;;;;;;5036779;28;20071;-70
2022/01/03 01:03:10;;;;;;;9.80;4.38;;;1.00;99.90;;;;;;5037334;28;20547;-70
2022/01/03 01:05:39;;;;;;;6.82;3.88;;;0.90;99.90;;;;;;5037031;28;20119;-70
2022/01/03 01:08:06;;;;;;;7.32;4.05;;;1.00;99.90;;;;;;5037234;28;20018;-70
2022/01/03 01:10:34;;;;;;;9.70;3.85;;;0.90;99.90;;;;;;5052484;28;20076;-70
2022/01/03 01:13:02;;;;;;;7.13;3.40;;;0.90;99.90;;;;;;5037728;28;20101;-70
2022/01/03 01:15:29;;;;;;;6.38;3.33;;;0.90;99.90;;;;;;5036872;28;20042;-70
2022/01/03 01:17:56;;;;;;;8.05;3.22;;;0.90;99.90;;;;;;5036983;28;20026;-69
2022/01/03 01:20:23;;;;;;;7.32;3.60;;;0.90;99.90;;;;;;5036802;28;20021;-70
2022/01/03 01:22:50;;;;;;;6.75;3.70;;;0.80;99.90;;;;;;5037232;28;20026;-69
2022/01/03 01:27:49;;;;;;;8.52;4.20;;;0.80;99.90;;;;;;5037123;28;20049;-70
2022/01/03 01:30:23;;;;;;;7.10;3.35;;;0.80;99.90;;;;;;5037320;28;20331;-70
2022/01/03 01:33:13;;;;;;;8.77;4.88;;;0.80;99.90;;;;;;5037053;28;20033;-70
2022/01/03 01:35:46;;;;;;;5.43;3.22;;;0.80;99.90;;;;;;5036538;28;20026;-70
2022/01/03 01:38:21;;;;;;;6.40;3.90;;;0.80;99.90;;;;;;5052046;28;20034;-70
2022/01/03 01:40:49;;;;;;;6.85;3.67;;;0.70;99.90;;;;;;5036577;28;20465;-70
2022/01/03 01:43:39;;;;;;;6.45;3.40;;;0.70;99.90;;;;;;5036563;28;20506;-70
2022/01/03 01:46:15;;;;;;;7.88;3.65;;;0.70;99.90;;;;;;5036050;28;20094;-70
2022/01/03 01:48:44;;;;;;;5.63;3.30;;;0.70;99.90;;;;;;5036782;28;20072;-70
2022/01/03 01:51:12;;;;;;;6.60;3.30;;;0.70;99.90;;;;;;5035214;28;20097;-70
2022/01/03 01:53:49;;;;;;;6.60;3.35;;;0.70;99.90;;;;;;5036348;28;20484;-70
2022/01/03 01:56:45;;;;;;;6.45;3.25;;;0.60;99.90;;;;;;5036316;28;20053;-70
2022/01/03 01:59:25;;;;;;;5.65;3.40;;;0.60;99.90;;;;;;5036273;28;20022;-70
2022/01/03 02:02:05;;;;;;;8.13;4.40;;;0.60;99.90;;;;;;5036313;28;20457;-70
2022/01/03 02:04:49;;;;;;;9.85;4.50;;;0.60;99.90;;;;;;5036144;28;20466;-70
2022/01/03 02:07:30;;;;;;;7.57;3.95;;;0.50;99.90;;;;;;5051468;28;20397;-70
2022/01/03 02:10:10;;;;;;;7.47;4.35;;;0.50;99.90;;;;;;5035992;28;20031;-70
2022/01/03 02:12:46;;;;;;;5.95;3.75;;;0.50;99.90;;;;;;5035546;28;20452;-70
2022/01/03 02:15:15;;;;;;;7.75;3.70;;;0.60;99.90;;;;;;5036108;28;20032;-70
2022/01/03 02:17:44;;;;;;;5.43;3.22;;;0.60;99.90;;;;;;5035928;28;20022;-70
2022/01/03 02:20:17;;;;;;;6.15;3.83;;;0.50;99.90;;;;;;5035501;28;20018;-70
2022/01/03 02:22:44;;;;;;;8.63;4.60;;;0.50;99.90;;;;;;5035818;28;20476;-70
2022/01/03 02:25:13;;;;;;;9.55;5.95;;;0.50;99.90;;;;;;5035993;28;20436;-70
2022/01/03 02:27:39;;;;;;;9.50;4.90;;;0.50;99.90;;;;;;5035731;28;20018;-70
2022/01/03 02:30:09;;;;;;;7.75;4.70;;;0.40;99.90;;;;;;5035614;28;20378;-70
2022/01/03 02:32:35;;;;;;;10.52;4.90;;;0.40;99.90;;;;;;5035567;28;20021;-70
2022/01/03 02:35:00;;;;;;;9.43;4.35;;;0.40;99.90;;;;;;5035723;28;20355;-70
2022/01/03 02:37:26;;;;;;;7.75;4.45;;;0.40;99.90;;;;;;5035559;28;20028;-70
2022/01/03 02:39:53;;;;;;;7.63;4.53;;;0.30;99.90;;;;;;5035510;28;20032;-70
2022/01/03 02:42:23;;;;;;;7.85;4.38;;;0.30;99.90;;;;;;5035385;28;20036;-70
2022/01/03 02:44:59;;;;;;;7.55;3.90;;;0.30;99.90;;;;;;5035988;28;20129;-70
2022/01/03 02:47:25;;;;;;;8.27;3.95;;;0.20;99.90;;;;;;5035665;28;20021;-70
2022/01/03 02:49:51;;;;;;;7.55;4.15;;;0.20;99.90;;;;;;5035218;28;20029;-70
2022/01/03 02:52:16;;;;;;;9.30;5.03;;;0.20;99.90;;;;;;5035237;28;20100;-70
2022/01/03 02:54:42;;;;;;;6.95;4.35;;;0.20;99.90;;;;;;5035235;28;20028;-70
2022/01/03 02:57:08;;;;;;;8.20;4.70;;;0.20;99.90;;;;;;5035209;28;20452;-70
2022/01/03 02:59:34;;;;;;;10.32;5.60;;;0.30;99.90;;;;;;5035115;28;20035;-70
2022/01/03 03:02:00;;;;;;;8.05;4.63;;;0.30;99.90;;;;;;5035321;28;20053;-70
2022/01/03 03:04:25;;;;;;;9.55;4.93;;;0.30;99.90;;;;;;5035072;28;20029;-70
2022/01/03 03:06:51;;;;;;;9.98;5.80;;;0.30;99.90;;;;;;5034936;28;20034;-70
2022/01/03 03:09:17;;;;;;;9.93;5.30;;;0.30;99.90;;;;;;5034978;28;20048;-70
2022/01/03 03:11:42;;;;;;;9.68;4.72;;;0.30;99.90;;;;;;5034847;28;20363;-70
2022/01/03 03:14:08;;;;;;;8.02;4.68;;;0.20;99.90;;;;;;5035385;28;20017;-70
2022/01/03 03:16:34;;;;;;;9.35;5.10;;;0.20;99.90;;;;;;5050110;28;20132;-70
2022/01/03 03:19:00;;;;;;;8.90;4.68;;;0.20;99.90;;;;;;5035019;28;20079;-71
2022/01/03 03:21:30;;;;;;;9.85;4.35;;;0.20;99.90;;;;;;5034217;28;20037;-70
2022/01/03 03:23:56;;;;;;;9.57;4.63;;;0.20;99.90;;;;;;5034704;28;20021;-70
2022/01/03 03:26:21;;;;;;;7.53;4.25;;;0.20;99.90;;;;;;5034803;28;20037;-70
2022/01/03 03:28:47;;;;;;;8.77;4.38;;;0.20;99.90;;;;;;5034580;28;20028;-70
2022/01/03 03:31:13;;;;;;;22.70;10.40;;;0.20;99.90;;;;;;5034448;28;20030;-70
2022/01/03 03:33:38;;;;;;;10.85;6.32;;;0.20;99.90;;;;;;5034472;28;20022;-70
2022/01/03 03:36:05;;;;;;;10.88;6.75;;;0.20;99.90;;;;;;5034363;28;20026;-70
2022/01/03 03:38:31;;;;;;;11.00;5.38;;;0.20;99.90;;;;;;5034689;28;20032;-70
2022/01/03 03:40:59;;;;;;;7.60;4.38;;;0.20;99.90;;;;;;5049562;28;20029;-70
2022/01/03 03:43:25;;;;;;;7.70;4.22;;;0.20;99.90;;;;;;5034282;28;20026;-70
2022/01/03 03:45:51;;;;;;;6.43;3.70;;;0.20;99.90;;;;;;5034135;28;20112;-70
2022/01/03 03:48:18;;;;;;;8.50;5.25;;;0.20;99.90;;;;;;5034468;28;20083;-70
2022/01/03 03:50:44;;;;;;;7.55;5.30;;;0.20;99.90;;;;;;5033753;28;20067;-70
2022/01/03 03:53:10;;;;;;;8.02;4.88;;;0.10;99.90;;;;;;5034080;28;20025;-70
2022/01/03 03:55:36;;;;;;;7.55;4.43;;;0.10;99.90;;;;;;5034061;28;20044;-70
2022/01/03 03:58:03;;;;;;;9.65;5.20;;;0.10;99.90;;;;;;5034024;28;20029;-70
2022/01/03 04:00:30;;;;;;;10.50;5.88;;;0.10;99.90;;;;;;5049259;28;20026;-70
2022/01/03 04:02:55;;;;;;;8.77;4.32;;;0.10;99.90;;;;;;5034484;28;20044;-70
2022/01/03 04:05:21;;;;;;;8.70;4.50;;;0.10;99.90;;;;;;5033566;28;20029;-70
2022/01/03 04:07:47;;;;;;;9.43;5.18;;;0.10;99.90;;;;;;5033868;28;20021;-70
2022/01/03 04:10:15;;;;;;;8.20;4.70;;;0.10;99.90;;;;;;5033697;28;20109;-70
2022/01/03 04:12:45;;;;;;;7.45;4.45;;;0.20;99.90;;;;;;5034049;28;20022;-70
2022/01/03 04:15:12;;;;;;;8.20;4.78;;;0.20;99.90;;;;;;5033899;28;20484;-70
2022/01/03 04:17:38;;;;;;;8.13;4.57;;;0.20;99.90;;;;;;5034030;28;20032;-70
2022/01/03 04:20:05;;;;;;;9.25;4.55;;;0.20;99.90;;;;;;5033320;28;20477;-71
2022/01/03 04:22:31;;;;;;;10.82;4.47;;;0.20;99.90;;;;;;5033608;28;20022;-70
2022/01/03 04:24:57;;;;;;;8.43;5.00;;;0.20;99.90;;;;;;5034084;28;20024;-70
2022/01/03 04:27:23;;;;;;;8.48;3.85;;;0.20;99.90;;;;;;5033521;28;20438;-70
2022/01/03 04:29:49;;;;;;;8.45;5.05;;;0.30;99.90;;;;;;5033752;28;20075;-71
2022/01/03 04:32:14;;;;;;;9.25;5.47;;;0.20;99.90;;;;;;5033416;28;20088;-70
2022/01/03 04:34:40;;;;;;;8.02;4.78;;;0.20;99.90;;;;;;5032929;28;20048;-70
2022/01/03 04:37:06;;;;;;;8.82;5.10;;;0.20;99.90;;;;;;5033472;28;20061;-70
2022/01/03 04:39:32;;;;;;;9.52;5.40;;;0.20;99.90;;;;;;5033438;28;20025;-70
2022/01/03 04:41:57;;;;;;;8.30;5.03;;;0.20;99.90;;;;;;5048621;28;20025;-70
2022/01/03 04:44:23;;;;;;;9.98;5.47;;;0.20;99.90;;;;;;5033383;28;20030;-70
2022/01/03 04:46:50;;;;;;;13.48;6.53;;;0.20;99.90;;;;;;5033272;28;20033;-70
2022/01/03 04:49:15;;;;;;;12.63;6.57;;;0.20;99.90;;;;;;5033262;28;20027;-70
2022/01/03 04:51:41;;;;;;;10.65;5.97;;;0.20;99.90;;;;;;5033027;28;20018;-70
2022/01/03 04:54:07;;;;;;;11.68;6.38;;;0.30;99.90;;;;;;5033344;28;20025;-70
2022/01/03 04:56:33;;;;;;;11.90;6.07;;;0.30;99.90;;;;;;5033234;28;20482;-70
2022/01/03 04:58:59;;;;;;;8.10;5.10;;;0.30;99.90;;;;;;5033471;28;20021;-70
2022/01/03 05:01:25;;;;;;;9.60;5.32;;;0.30;99.90;;;;;;5033464;28;20478;-70
2022/01/03 05:03:52;;;;;;;9.57;4.95;;;0.30;99.90;;;;;;5033501;28;20037;-71
2022/01/03 05:06:19;;;;;;;10.25;4.60;;;0.30;99.90;;;;;;5032837;28;20030;-71
2022/01/03 05:08:45;;;;;;;7.45;4.90;;;0.30;99.90;;;;;;5033661;28;20025;-71
2022/01/03 05:11:11;;;;;;;9.70;6.28;;;0.30;99.90;;;;;;5033381;28;20040;-71
2022/01/03 05:13:37;;;;;;;10.52;6.22;;;0.30;99.90;;;;;;5033371;28;20474;-71
2022/01/03 05:16:03;;;;;;;13.35;7.22;;;0.30;99.90;;;;;;5033190;28;20037;-70
2022/01/03 05:18:28;;;;;;;29.00;13.15;;;0.30;99.90;;;;;;5033036;28;20036;-70
2022/01/03 05:20:54;;;;;;;51.17;20.63;;;0.30;99.90;;;;;;5032866;28;20026;-70
2022/01/03 05:23:20;;;;;;;10.90;6.10;;;0.30;99.90;;;;;;5048474;28;20524;-70
2022/01/03 05:25:46;;;;;;;10.57;6.18;;;0.30;99.90;;;;;;5032988;28;20084;-70
2022/01/03 05:28:12;;;;;;;9.88;5.88;;;0.30;99.90;;;;;;5048462;28;20085;-70
2022/01/03 05:30:38;;;;;;;13.38;5.82;;;0.30;99.90;;;;;;5032893;28;20022;-70
2022/01/03 05:33:04;;;;;;;17.08;8.07;;;0.20;99.90;;;;;;5032991;28;20373;-70
2022/01/03 05:35:30;;;;;;;13.50;7.63;;;0.30;99.90;;;;;;5032648;28;20030;-70
2022/01/03 05:37:56;;;;;;;16.30;7.90;;;0.30;99.90;;;;;;5032876;28;20025;-70
2022/01/03 05:40:23;;;;;;;14.00;7.80;;;0.30;99.90;;;;;;5033053;28;20021;-70
2022/01/03 05:42:49;;;;;;;10.77;5.80;;;0.30;99.90;;;;;;5032833;28;20017;-70
2022/01/03 05:45:15;;;;;;;11.23;6.28;;;0.20;99.90;;;;;;5034127;28;20026;-70
2022/01/03 05:47:43;;;;;;;11.68;6.63;;;0.20;99.90;;;;;;5036335;28;20068;-70
2022/01/03 05:50:09;;;;;;;11.50;7.30;;;0.20;99.90;;;;;;5036217;28;20418;-70
2022/01/03 05:52:34;;;;;;;12.65;7.55;;;0.20;99.90;;;;;;5036436;28;20071;-70
2022/01/03 05:55:00;;;;;;;11.10;6.63;;;0.20;99.90;;;;;;5036660;28;20026;-70
2022/01/03 05:57:26;;;;;;;11.77;6.90;;;0.20;99.90;;;;;;5036281;28;20065;-70
2022/01/03 05:59:51;;;;;;;10.88;6.57;;;0.20;99.90;;;;;;5036791;28;20025;-70
2022/01/03 06:02:17;;;;;;;10.82;6.63;;;0.20;99.90;;;;;;5036142;28;20036;-70
2022/01/03 06:04:56;;;;;;;12.02;6.40;;;0.30;99.90;;;;;;5035992;28;20036;-71
2022/01/03 06:07:22;;;;;;;11.07;5.82;;;0.30;99.90;;;;;;5036385;28;20018;-70
2022/01/03 06:09:49;;;;;;;9.15;4.68;;;0.30;99.90;;;;;;5036150;28;20021;-70
2022/01/03 06:12:17;;;;;;;8.38;4.72;;;0.30;99.90;;;;;;5036063;28;20109;-70
2022/01/03 06:14:44;;;;;;;8.52;5.10;;;0.40;99.90;;;;;;5035921;28;20022;-71
2022/01/03 06:17:10;;;;;;;7.57;4.35;;;0.40;99.90;;;;;;5036802;28;20350;-70
2022/01/03 06:19:36;;;;;;;6.63;4.20;;;0.40;99.90;;;;;;5035831;28;20032;-70
2022/01/03 06:22:07;;;;;;;9.38;5.18;;;0.40;99.90;;;;;;5035622;28;20025;-70
2022/01/03 06:24:33;;;;;;;9.70;5.18;;;0.40;99.90;;;;;;5035885;28;20048;-70
2022/01/03 06:26:58;;;;;;;9.60;4.70;;;0.40;99.90;;;;;;5036189;28;20115;-70
2022/01/03 06:29:24;;;;;;;9.93;4.70;;;0.40;99.90;;;;;;5036014;28;20021;-70
2022/01/03 06:31:50;;;;;;;9.18;4.53;;;0.40;99.90;;;;;;5035932;28;20021;-70
2022/01/03 06:34:17;;;;;;;6.57;4.45;;;0.40;99.90;;;;;;5035629;28;20105;-70
2022/01/03 06:36:44;;;;;;;7.80;4.90;;;0.40;99.90;;;;;;5050738;28;20061;-70
2022/01/03 06:39:11;;;;;;;12.43;5.03;;;0.40;99.90;;;;;;5035636;28;20029;-70
2022/01/03 06:41:37;;;;;;;7.93;4.88;;;0.40;99.90;;;;;;5035427;28;20022;-70
2022/01/03 06:44:04;;;;;;;10.38;5.45;;;0.30;99.90;;;;;;5035473;28;20464;-70
2022/01/03 06:46:29;;;;;;;9.52;4.97;;;0.30;99.90;;;;;;5035313;28;20025;-70
2022/01/03 06:48:55;;;;;;;7.95;4.25;;;0.30;99.90;;;;;;5035309;28;20021;-70
2022/01/03 06:51:21;;;;;;;8.95;5.03;;;0.30;99.90;;;;;;5050265;28;20405;-70
2022/01/03 06:53:47;;;;;;;14.55;6.85;;;0.30;99.90;;;;;;5035278;28;20029;-71
2022/01/03 06:56:13;;;;;;;11.63;6.20;;;0.30;99.90;;;;;;5035153;28;20034;-70
2022/01/03 06:58:39;;;;;;;11.52;5.90;;;0.30;99.90;;;;;;5034785;28;20497;-70
2022/01/03 07:01:05;;;;;;;11.15;6.03;;;0.20;99.90;;;;;;5035068;28;20065;-70
2022/01/03 07:03:31;;;;;;;11.55;5.28;;;0.20;99.90;;;;;;5035094;28;20030;-70
2022/01/03 07:05:57;;;;;;;8.05;4.95;;;0.20;99.90;;;;;;5034743;28;20037;-70
2022/01/03 07:08:23;;;;;;;8.93;4.97;;;0.20;99.90;;;;;;5034986;28;20371;-70
2022/01/03 07:10:49;;;;;;;10.70;5.28;;;0.20;99.90;;;;;;5035140;28;20017;-70
2022/01/03 07:13:16;;;;;;;10.85;5.20;;;0.20;99.90;;;;;;5034925;28;20073;-70
2022/01/03 07:21:12;;;;;;;18.85;9.52;;;0.20;99.90;;;;;;5034480;28;20037;-70
2022/01/03 07:23:39;;;;;;;17.80;9.25;;;0.30;99.90;;;;;;5034704;28;20021;-71
2022/01/03 07:26:05;;;;;;;24.75;15.13;;;0.20;99.90;;;;;;5034591;28;20030;-71
2022/01/03 07:28:31;;;;;;;22.30;12.25;;;0.20;99.90;;;;;;5035165;28;20023;-70
2022/01/03 07:30:56;;;;;;;16.23;8.95;;;0.20;99.90;;;;;;5034758;28;20021;-70
2022/01/03 07:33:22;;;;;;;14.32;7.10;;;0.20;99.90;;;;;;5034497;28;20025;-70
2022/01/03 07:35:47;;;;;;;17.15;6.18;;;0.20;99.90;;;;;;5034459;28;20101;-71
2022/01/03 07:38:13;;;;;;;9.32;4.97;;;0.20;99.90;;;;;;5034740;28;20492;-71
2022/01/03 07:40:40;;;;;;;9.05;4.68;;;0.30;99.90;;;;;;5034347;28;20608;-71
2022/01/03 07:43:06;;;;;;;6.47;3.97;;;0.30;99.90;;;;;;5034676;28;20075;-71
2022/01/03 07:45:32;;;;;;;6.93;4.22;;;0.30;99.90;;;;;;5034466;28;20029;-70
2022/01/03 07:47:58;;;;;;;9.35;4.25;;;0.30;99.90;;;;;;5034240;28;20087;-71
2022/01/03 07:50:23;;;;;;;11.85;5.63;;;0.30;99.90;;;;;;5033813;28;20482;-71
2022/01/03 07:52:49;;;;;;;11.20;6.55;;;0.30;99.90;;;;;;5034162;28;20470;-71
2022/01/03 07:55:15;;;;;;;16.20;8.10;;;0.30;99.90;;;;;;5034390;28;20021;-71
2022/01/03 07:57:42;;;;;;;11.35;6.47;;;0.30;99.90;;;;;;5034283;28;20029;-71
2022/01/03 08:00:11;;;;;;;13.43;8.23;;;0.30;99.90;;;;;;5034164;28;20029;-71
2022/01/03 08:02:38;;;;;;;14.60;6.70;;;0.40;99.90;;;;;;5034233;28;20156;-71
2022/01/03 08:05:06;;;;;;;11.77;6.20;;;0.40;99.90;;;;;;5033743;28;20025;-71
2022/01/03 08:07:31;;;;;;;11.30;4.95;;;0.40;99.90;;;;;;5033839;28;20535;-71
2022/01/03 08:09:57;;;;;;;9.43;5.88;;;0.50;99.90;;;;;;5032979;28;20025;-71
2022/01/03 08:12:23;;;;;;;11.55;6.82;;;0.60;99.90;;;;;;5033756;28;20121;-71
2022/01/03 08:14:48;;;;;;;11.77;6.55;;;0.60;99.90;;;;;;5033698;28;20389;-71
2022/01/03 08:17:14;;;;;;;10.63;5.80;;;0.70;99.90;;;;;;5034051;28;20488;-72
2022/01/03 08:19:40;;;;;;;10.65;6.30;;;0.70;99.90;;;;;;5033626;28;20032;-72
2022/01/03 08:22:06;;;;;;;10.23;6.07;;;0.80;99.90;;;;;;5033391;28;20037;-71
2022/01/03 08:24:31;;;;;;;18.10;12.30;;;0.80;99.90;;;;;;5034190;28;20108;-71
2022/01/03 08:26:57;;;;;;;15.25;8.88;;;0.90;99.90;;;;;;5034053;28;20029;-71
2022/01/03 08:29:23;;;;;;;11.88;7.75;;;0.90;99.90;;;;;;5033567;28;20097;-71
2022/01/03 08:31:49;;;;;;;13.18;8.63;;;1.00;99.90;;;;;;5033484;28;20021;-71
2022/01/03 08:34:15;;;;;;;17.10;9.57;;;1.00;99.90;;;;;;5048846;28;20112;-71
2022/01/03 08:36:40;;;;;;;19.20;9.05;;;1.10;99.90;;;;;;5033262;28;20105;-71
2022/01/03 08:39:06;;;;;;;17.27;8.93;;;1.10;99.90;;;;;;5033442;28;20037;-71
2022/01/03 08:41:32;;;;;;;16.80;8.73;;;1.20;99.90;;;;;;5033623;28;20028;-71
2022/01/03 08:43:58;;;;;;;14.02;7.82;;;1.20;99.90;;;;;;5033671;28;20393;-71
2022/01/03 08:46:24;;;;;;;14.23;7.47;;;1.20;99.90;;;;;;5033321;28;20033;-73
2022/01/03 08:48:51;;;;;;;13.00;7.30;;;1.30;99.90;;;;;;5033359;28;20105;-73
2022/01/03 08:51:17;;;;;;;13.05;7.63;;;1.30;99.90;;;;;;5032796;28;20405;-73
2022/01/03 08:53:43;;;;;;;12.02;7.57;;;1.30;99.90;;;;;;5033313;28;20017;-73
2022/01/03 08:56:08;;;;;;;11.50;7.13;;;1.30;99.90;;;;;;5033760;28;20140;-73
2022/01/03 08:58:34;;;;;;;13.20;7.70;;;1.30;99.90;;;;;;5033219;28;20025;-73
2022/01/03 09:01:00;;;;;;;11.52;7.13;;;1.30;99.90;;;;;;5033154;28;20559;-73
2022/01/03 09:03:25;;;;;;;11.05;6.18;;;1.30;99.90;;;;;;5048518;28;20397;-73
2022/01/03 09:05:53;;;;;;;10.20;6.15;;;1.20;99.90;;;;;;5032890;28;20049;-73
2022/01/03 09:08:21;;;;;;;11.57;6.75;;;1.20;99.90;;;;;;5033482;28;20024;-73
2022/01/03 09:10:48;;;;;;;11.95;5.95;;;1.20;99.90;;;;;;5032991;28;20021;-73
2022/01/03 09:13:14;;;;;;;11.05;6.07;;;1.20;99.90;;;;;;5033424;28;20466;-73
2022/01/03 09:15:44;;;;;;;10.82;6.28;;;1.20;99.90;;;;;;5032960;28;20038;-73
2022/01/03 09:18:11;;;;;;;9.70;6.00;;;1.20;99.90;;;;;;5033361;28;20026;-73
2022/01/03 09:20:36;;;;;;;12.27;6.47;;;1.30;99.90;;;;;;5034511;28;20034;-73
2022/01/03 09:23:10;;;;;;;10.00;5.70;;;1.30;99.90;;;;;;5037022;28;20033;-73
2022/01/03 09:30:47;;;;;;;10.27;6.10;;;1.50;99.90;;;;;;5035757;28;20397;-73
2022/01/03 09:33:13;;;;;;;109.55;50.33;;;1.50;99.90;;;;;;5036600;28;20017;-73
2022/01/03 09:35:43;;;;;;;29.20;15.27;;;1.50;99.90;;;;;;5035263;28;20025;-73
2022/01/03 09:38:11;;;;;;;27.35;15.80;;;1.60;99.90;;;;;;5036871;28;20053;-73
2022/01/03 09:40:40;;;;;;;14.93;8.82;;;1.60;99.90;;;;;;5036813;28;20036;-72
2022/01/03 09:43:08;;;;;;;12.63;6.60;;;1.70;99.90;;;;;;5036639;28;20072;-72
2022/01/03 09:45:35;;;;;;;11.77;6.75;;;1.80;99.90;;;;;;5036471;28;20022;-73
2022/01/03 09:48:03;;;;;;;13.35;6.35;;;1.90;99.90;;;;;;5036537;28;20049;-73
2022/01/03 09:50:31;;;;;;;11.65;6.72;;;1.90;99.90;;;;;;5036358;28;20022;-72
2022/01/03 09:52:57;;;;;;;14.23;7.88;;;2.00;99.90;;;;;;5036481;28;20032;-72
2022/01/03 09:55:24;;;;;;;12.02;6.35;;;2.10;99.90;;;;;;5036419;28;20101;-73
2022/01/03 09:57:50;;;;;;;10.10;6.70;;;2.20;99.90;;;;;;5036595;28;20454;-73
2022/01/03 10:00:22;;;;;;;15.15;7.18;;;2.30;99.90;;;;;;5034952;28;20053;-72
2022/01/03 10:02:50;;;;;;;11.32;6.53;;;2.40;99.90;;;;;;5059190;23;20041;-74
2022/01/03 10:05:16;;;;;;;17.65;10.38;;;2.50;99.90;;;;;;5036279;28;20014;-74
2022/01/03 10:07:41;;;;;;;14.18;7.95;;;2.60;99.90;;;;;;5035849;28;20042;-74
2022/01/03 10:10:09;;;;;;;13.10;7.50;;;2.70;99.90;;;;;;5036131;28;20096;-73
2022/01/03 10:12:36;;;;;;;12.40;7.10;;;2.90;99.90;;;;;;5034858;28;20392;-74
2022/01/03 10:15:04;;;;;;;9.40;6.25;;;3.00;99.90;;;;;;5036037;28;20365;-74
2022/01/03 10:17:37;;;;;;;11.90;6.55;;;3.00;99.90;;;;;;5036093;28;20401;-74
2022/01/03 10:20:06;;;;;;;11.70;6.38;;;3.10;99.90;;;;;;5035991;28;20067;-74
2022/01/03 10:22:33;;;;;;;11.77;6.57;;;3.10;99.90;;;;;;5035659;28;20028;-75
2022/01/03 10:25:15;;;;;;;10.40;6.00;;;3.20;99.90;;;;;;5035977;28;20531;-74
2022/01/03 10:28:07;;;;;;;12.07;5.93;;;3.30;99.90;;;;;;5036029;28;20482;-74
2022/01/03 10:30:45;;;;;;;10.75;6.03;;;3.40;99.90;;;;;;5033037;28;20041;-74
2022/01/03 10:33:16;;;;;;;323.05;112.13;;;3.50;99.90;;;;;;5034634;28;20025;-74
2022/01/03 10:35:44;;;;;;;260.05;95.95;;;3.60;99.90;;;;;;5035496;28;20021;-74
2022/01/03 10:38:28;;;;;;;29.92;11.52;;;3.60;99.90;;;;;;5035683;28;20531;-76
2022/01/03 10:41:08;;;;;;;12.05;6.20;;;3.70;99.90;;;;;;5034262;28;20022;-76
2022/01/03 10:43:34;;;;;;;17.25;10.25;;;3.80;99.90;;;;;;5034340;28;20030;-76
2022/01/03 10:46:00;;;;;;;15.35;9.25;;;3.90;99.90;;;;;;5034175;28;20401;-76
2022/01/03 10:48:36;;;;;;;14.43;8.20;;;4.00;99.90;;;;;;5035496;28;20489;-76
2022/01/03 10:51:03;;;;;;;14.70;7.07;;;4.00;99.90;;;;;;5035568;28;20014;-76
2022/01/03 10:53:38;;;;;;;15.45;7.45;;;4.10;99.90;;;;;;5035406;28;20013;-77
2022/01/03 10:56:23;;;;;;;13.40;7.35;;;4.10;99.90;;;;;;5035789;28;20083;-76
2022/01/03 10:58:50;;;;;;;15.73;7.40;;;4.10;99.90;;;;;;5035606;28;20033;-76
2022/01/03 11:01:24;;;;;;;15.65;7.78;;;4.20;99.90;;;;;;5033680;28;20036;-75
2022/01/03 11:03:50;;;;;;;20.17;9.73;;;4.30;99.90;;;;;;5035268;28;20036;-75
2022/01/03 11:06:47;;;;;;;15.73;9.27;;;4.30;99.90;;;;;;5034954;28;20022;-75
2022/01/03 11:11:55;;;;;;;14.10;7.18;;;4.50;99.90;;;;;;5034986;28;20033;-75
2022/01/03 11:14:38;;;;;;;13.10;6.97;;;4.60;99.90;;;;;;5034895;28;20071;-74
2022/01/03 11:17:22;;;;;;;19.73;9.23;;;4.80;99.90;;;;;;5034873;28;20492;-75
2022/01/03 11:19:47;;;;;;;18.33;10.18;;;4.80;99.90;;;;;;5033538;28;20029;-74
2022/01/03 11:22:36;;;;;;;24.75;11.90;;;4.90;99.90;;;;;;5034529;28;20025;-75
2022/01/03 11:25:02;;;;;;;19.77;10.52;;;5.00;99.90;;;;;;5034396;28;20076;-75
2022/01/03 11:27:28;;;;;;;19.77;9.73;;;5.10;99.90;;;;;;5034617;28;20384;-75
2022/01/03 11:29:54;;;;;;;16.33;9.27;;;5.10;99.90;;;;;;5035193;28;20097;-75
2022/01/03 11:32:20;;;;;;;21.02;8.75;;;5.10;99.90;;;;;;5034513;28;20420;-75
2022/01/03 11:34:47;;;;;;;20.85;9.32;;;5.00;99.90;;;;;;5034569;28;20025;-75
2022/01/03 11:37:13;;;;;;;15.88;8.85;;;5.10;99.90;;;;;;5034226;28;20036;-75
2022/01/03 11:39:40;;;;;;;18.60;9.38;;;5.10;99.90;;;;;;5033173;28;20477;-74
2022/01/03 11:42:06;;;;;;;19.02;10.02;;;5.00;99.90;;;;;;5034534;28;20022;-73
2022/01/03 11:44:32;;;;;;;19.55;9.07;;;5.10;99.90;;;;;;5034397;28;20026;-73
2022/01/03 11:46:59;;;;;;;17.77;9.40;;;5.00;99.90;;;;;;5034483;28;20028;-73
2022/01/03 11:49:25;;;;;;;15.95;9.68;;;5.00;99.90;;;;;;5034257;28;20477;-73
2022/01/03 11:51:52;;;;;;;18.77;10.32;;;5.00;99.90;;;;;;5033902;28;20040;-73
2022/01/03 11:54:19;;;;;;;18.90;10.38;;;4.90;99.90;;;;;;5034014;28;20550;-73
2022/01/03 11:56:50;;;;;;;19.23;10.85;;;4.90;99.90;;;;;;5034201;28;20026;-73
2022/01/03 12:04:32;;;;;;;17.63;11.27;;;4.90;99.90;;;;;;5034020;28;20052;-73
2022/01/03 12:07:09;;;;;;;19.67;10.70;;;4.90;99.90;;;;;;5033569;28;20036;-73
2022/01/03 12:09:42;;;;;;;27.08;14.63;;;4.90;99.90;;;;;;5034147;28;20484;-72
2022/01/03 12:12:09;;;;;;;29.27;14.63;;;4.90;99.90;;;;;;5032589;28;20030;-73
2022/01/03 12:14:41;;;;;;;31.35;16.20;;;4.90;99.90;;;;;;5034119;28;20028;-73
2022/01/03 12:17:09;;;;;;;29.60;17.10;;;5.00;99.90;;;;;;5033796;28;20022;-73
2022/01/03 12:19:39;;;;;;;30.08;15.45;;;5.00;99.90;;;;;;5033875;28;20441;-73
2022/01/03 12:22:23;;;;;;;29.30;15.70;;;5.00;99.90;;;;;;5033728;28;20025;-73
2022/01/03 12:24:53;;;;;;;24.13;12.75;;;5.00;99.90;;;;;;5030164;28;20330;-73
2022/01/03 12:27:19;;;;;;;25.55;14.55;;;5.00;99.90;;;;;;5033549;28;20389;-73
2022/01/03 12:29:56;;;;;;;21.20;13.90;;;4.90;99.90;;;;;;5033588;28;20029;-73
2022/01/03 12:32:32;;;;;;;32.38;19.92;;;4.90;99.90;;;;;;5033520;28;20028;-72
2022/01/03 12:35:20;;;;;;;30.27;18.55;;;4.90;99.90;;;;;;5033888;28;20088;-72
2022/01/03 12:37:50;;;;;;;19.98;13.27;;;4.90;99.90;;;;;;5031893;28;20037;-73
2022/01/03 12:40:27;;;;;;;24.85;14.63;;;4.80;99.90;;;;;;5033510;28;20480;-73
2022/01/03 12:43:06;;;;;;;23.42;12.98;;;4.80;99.90;;;;;;5033676;28;20065;-73
2022/01/03 12:45:35;;;;;;;58.25;29.50;;;4.80;99.90;;;;;;5033330;28;20025;-73
2022/01/03 12:48:09;;;;;;;47.28;26.02;;;4.80;99.90;;;;;;5033660;28;20025;-73
2022/01/03 12:50:36;;;;;;;43.92;24.35;;;4.80;99.90;;;;;;5033311;28;20163;-73
2022/01/03 12:53:04;;;;;;;47.25;25.17;;;4.80;99.90;;;;;;5033010;28;20036;-73
2022/01/03 12:55:38;;;;;;;51.10;27.40;;;4.70;99.90;;;;;;5037022;28;20096;-73
2022/01/03 12:58:16;;;;;;;49.33;25.63;;;4.70;99.90;;;;;;5039889;28;20029;-73
2022/01/03 13:00:49;;;;;;;43.60;24.85;;;4.60;99.90;;;;;;5039836;28;20025;-73
2022/01/03 13:03:24;;;;;;;46.03;25.20;;;4.60;99.90;;;;;;5039785;28;20029;-73
2022/01/03 13:06:09;;;;;;;42.33;23.75;;;4.60;99.90;;;;;;5039712;28;20511;-73
2022/01/03 13:08:37;;;;;;;49.80;26.73;;;4.60;99.90;;;;;;5039755;28;20047;-73
2022/01/03 13:11:11;;;;;;;49.53;26.60;;;4.50;99.90;;;;;;5039752;28;20071;-73
2022/01/03 13:13:39;;;;;;;44.25;25.15;;;4.50;99.90;;;;;;5039794;28;20108;-73
2022/01/03 13:16:31;;;;;;;48.38;27.05;;;4.50;99.90;;;;;;5039969;28;20025;-70
2022/01/03 13:19:03;;;;;;;33.78;18.80;;;4.40;99.90;;;;;;5039567;28;20505;-70